Time;durP1;ratioP1;P1;durP2;ratioP2;P2;SDS_P1;SDS_P2;PMS_P1;PMS_P2;Temp;Humidity;BMP_temperature;BMP_pressure;BME280_temperature;BME280_humidity;BME280_pressure;Samples;Min_cycle;Max_cycle;Signal;HPM_P1;HPM_P2
2021/03/15 00:00:45;;;;;;;3.50;2.23;;;2.20;99.90;;;;;;4986673;28;20493;-59
2021/03/15 00:03:11;;;;;;;2.73;2.37;;;2.20;99.90;;;;;;4991436;28;20430;-59
2021/03/15 00:05:37;;;;;;;2.00;1.80;;;2.20;99.90;;;;;;4995939;28;20450;-60
2021/03/15 00:08:03;;;;;;;2.40;2.20;;;2.20;99.90;;;;;;4976754;28;20428;-60
2021/03/15 00:10:30;;;;;;;2.70;2.27;;;2.20;99.90;;;;;;4992260;28;20195;-59
2021/03/15 00:12:58;;;;;;;2.43;2.23;;;2.20;99.90;;;;;;4976422;28;20462;-57
2021/03/15 00:15:27;;;;;;;5.73;2.93;;;2.20;99.90;;;;;;4992012;28;20437;-55
2021/03/15 00:17:53;;;;;;;3.00;2.70;;;2.20;99.90;;;;;;4992446;28;20435;-59
2021/03/15 00:20:21;;;;;;;2.43;2.23;;;2.20;99.90;;;;;;4989698;28;20520;-59
2021/03/15 00:22:48;;;;;;;3.63;2.90;;;2.20;99.90;;;;;;4989701;28;20261;-58
2021/03/15 00:25:15;;;;;;;3.23;2.93;;;2.20;99.90;;;;;;4992333;28;20448;-59
2021/03/15 00:27:41;;;;;;;2.73;2.53;;;2.20;99.90;;;;;;4987687;28;20509;-59
2021/03/15 00:30:09;;;;;;;3.90;2.23;;;2.20;99.90;;;;;;4976029;28;20518;-59
2021/03/15 00:32:35;;;;;;;5.07;2.80;;;2.20;99.90;;;;;;4990653;28;20430;-59
2021/03/15 00:35:02;;;;;;;3.70;2.80;;;2.20;99.90;;;;;;4990967;28;20455;-60
2021/03/15 00:37:28;;;;;;;3.93;2.60;;;2.20;99.90;;;;;;4976340;28;20438;-59
2021/03/15 00:39:56;;;;;;;3.97;2.40;;;2.20;99.90;;;;;;4971364;28;20435;-60
2021/03/15 00:42:21;;;;;;;2.70;2.50;;;2.20;99.90;;;;;;4974720;28;20439;-59
2021/03/15 00:44:47;;;;;;;3.03;2.73;;;2.20;99.90;;;;;;4992172;28;20487;-59
2021/03/15 00:47:13;;;;;;;3.80;2.37;;;2.20;99.90;;;;;;4990511;28;20221;-59
2021/03/15 00:49:38;;;;;;;5.30;3.47;;;2.20;99.90;;;;;;4988940;28;20184;-57
2021/03/15 00:52:04;;;;;;;3.00;2.63;;;2.20;99.90;;;;;;5000680;28;20207;-57
2021/03/15 00:54:30;;;;;;;3.80;2.77;;;2.20;99.90;;;;;;5004442;28;20191;-68
2021/03/15 00:56:56;;;;;;;4.70;3.67;;;2.20;99.90;;;;;;5003257;28;20480;-58
2021/03/15 00:59:22;;;;;;;4.33;3.20;;;2.10;99.90;;;;;;5001987;28;20438;-58
2021/03/15 01:01:49;;;;;;;3.93;2.73;;;2.10;99.90;;;;;;5010255;22;20235;-59
2021/03/15 01:04:15;;;;;;;3.67;3.17;;;2.10;99.90;;;;;;4974727;28;21010;-60
2021/03/15 01:06:42;;;;;;;3.10;2.80;;;2.10;99.90;;;;;;4980247;28;20465;-61
2021/03/15 01:09:09;;;;;;;5.70;3.30;;;2.10;99.90;;;;;;4997976;28;20436;-60
2021/03/15 01:11:34;;;;;;;5.07;2.97;;;2.10;99.90;;;;;;4985185;28;20452;-60
2021/03/15 01:14:01;;;;;;;4.83;2.80;;;2.20;99.90;;;;;;4971306;28;20570;-60
2021/03/15 01:16:26;;;;;;;5.30;3.20;;;2.20;99.90;;;;;;4970337;28;20859;-60
2021/03/15 01:18:52;;;;;;;2.93;2.70;;;2.20;99.90;;;;;;4968443;28;20208;-62
2021/03/15 01:21:18;;;;;;;5.03;3.47;;;2.20;99.90;;;;;;4971489;28;20219;-58
2021/03/15 01:23:43;;;;;;;3.77;3.23;;;2.30;99.90;;;;;;4966772;28;20184;-60
2021/03/15 01:26:09;;;;;;;3.97;2.70;;;2.20;99.90;;;;;;4970329;28;20240;-59
2021/03/15 01:28:35;;;;;;;3.10;2.70;;;2.20;99.90;;;;;;4957683;28;20221;-62
2021/03/15 01:31:01;;;;;;;5.90;2.70;;;2.20;99.90;;;;;;4956198;28;20262;-60
2021/03/15 01:33:27;;;;;;;5.70;2.90;;;2.20;99.90;;;;;;4958962;28;20425;-61
2021/03/15 01:35:53;;;;;;;6.03;2.93;;;2.10;99.90;;;;;;4971302;28;20182;-59
2021/03/15 01:38:20;;;;;;;3.17;2.43;;;2.10;99.90;;;;;;4968463;28;20516;-60
2021/03/15 01:40:45;;;;;;;3.30;2.57;;;2.10;99.90;;;;;;4947579;28;20424;-60
2021/03/15 01:43:12;;;;;;;6.47;3.33;;;2.00;99.90;;;;;;4968529;28;20499;-60
2021/03/15 01:45:38;;;;;;;5.17;3.17;;;2.00;99.90;;;;;;4968126;28;20467;-60
2021/03/15 01:48:06;;;;;;;3.83;2.50;;;2.00;99.90;;;;;;4972288;28;20519;-60
2021/03/15 01:50:32;;;;;;;7.30;2.77;;;2.00;99.90;;;;;;4967677;28;20656;-60
2021/03/15 01:52:58;;;;;;;6.60;2.93;;;2.00;99.90;;;;;;4969590;28;20984;-60
2021/03/15 01:55:27;;;;;;;7.73;2.77;;;2.00;99.90;;;;;;4970230;28;20435;-60
2021/03/15 01:57:53;;;;;;;4.53;2.77;;;2.10;99.90;;;;;;4970762;28;20924;-61
2021/03/15 02:00:20;;;;;;;4.30;2.83;;;2.10;99.90;;;;;;4964304;28;20541;-61
2021/03/15 02:03:00;;;;;;;4.73;2.90;;;2.10;99.90;;;;;;4970249;28;20203;-60
2021/03/15 02:05:27;;;;;;;3.33;2.90;;;2.10;99.90;;;;;;4969923;28;20941;-61
2021/03/15 02:07:53;;;;;;;4.70;2.80;;;2.10;99.90;;;;;;4968883;28;20426;-59
2021/03/15 02:10:19;;;;;;;7.83;3.03;;;2.10;99.90;;;;;;4956289;28;20488;-60
2021/03/15 02:13:05;;;;;;;3.17;2.40;;;2.10;99.90;;;;;;4968283;28;20247;-60
2021/03/15 02:15:34;;;;;;;2.70;2.50;;;2.10;99.90;;;;;;4962612;28;20200;-61
2021/03/15 02:18:08;;;;;;;2.70;2.50;;;2.10;99.90;;;;;;4967303;28;20449;-60
2021/03/15 02:20:50;;;;;;;3.63;2.77;;;2.20;99.90;;;;;;4969610;28;20442;-62
2021/03/15 02:23:21;;;;;;;3.40;3.10;;;2.20;99.90;;;;;;4935654;28;20438;-61
2021/03/15 02:26:12;;;;;;;4.30;2.97;;;2.20;99.90;;;;;;4966814;28;20518;-60
2021/03/15 02:28:52;;;;;;;3.30;2.47;;;2.20;99.90;;;;;;4965438;28;20534;-62
2021/03/15 02:31:34;;;;;;;5.50;2.93;;;2.20;99.90;;;;;;4967110;28;20521;-61
2021/03/15 02:34:16;;;;;;;3.87;2.43;;;2.10;99.90;;;;;;4965446;28;20439;-61
2021/03/15 02:36:43;;;;;;;4.90;3.80;;;2.10;99.90;;;;;;4969390;28;20429;-59
2021/03/15 02:39:24;;;;;;;2.47;2.30;;;2.10;99.90;;;;;;4967477;28;20431;-61
2021/03/15 02:41:52;;;;;;;10.07;2.80;;;2.00;99.90;;;;;;4965428;28;20458;-61
2021/03/15 02:44:20;;;;;;;6.20;3.00;;;2.00;99.90;;;;;;4945354;28;20827;-61
2021/03/15 02:46:47;;;;;;;4.60;2.90;;;2.00;99.90;;;;;;4965469;28;20463;-60
2021/03/15 02:49:16;;;;;;;4.63;2.90;;;2.00;99.90;;;;;;4948590;28;20441;-61
2021/03/15 02:51:43;;;;;;;6.60;3.63;;;1.90;99.90;;;;;;4960675;28;20459;-61
2021/03/15 02:54:11;;;;;;;2.60;2.40;;;1.90;99.90;;;;;;4963370;28;20484;-59
2021/03/15 02:56:43;;;;;;;4.17;3.20;;;2.00;99.90;;;;;;4941206;28;20510;-60
2021/03/15 02:59:11;;;;;;;10.83;2.83;;;1.90;99.90;;;;;;4961579;28;20831;-59
2021/03/15 03:01:39;;;;;;;7.77;3.63;;;1.90;99.90;;;;;;4945516;28;20465;-60
2021/03/15 03:04:08;;;;;;;5.47;2.93;;;1.90;99.90;;;;;;4963561;28;20525;-63
2021/03/15 03:06:36;;;;;;;4.00;3.20;;;1.90;99.90;;;;;;4967138;28;20513;-60
2021/03/15 03:09:04;;;;;;;4.10;2.50;;;1.90;99.90;;;;;;4957370;28;20858;-61
2021/03/15 03:11:31;;;;;;;2.53;2.33;;;1.90;99.90;;;;;;4959876;28;21180;-61
2021/03/15 03:13:58;;;;;;;4.50;3.10;;;1.90;99.90;;;;;;4955442;28;20470;-63
2021/03/15 03:16:29;;;;;;;3.60;2.60;;;1.90;99.90;;;;;;4962749;28;20799;-59
2021/03/15 03:18:57;;;;;;;3.80;2.90;;;1.90;99.90;;;;;;4964635;28;20449;-57
2021/03/15 03:21:28;;;;;;;3.97;3.37;;;1.90;99.90;;;;;;4968397;28;20516;-61
2021/03/15 03:24:12;;;;;;;9.33;3.17;;;1.90;99.90;;;;;;4964300;28;20783;-62
2021/03/15 03:26:38;;;;;;;4.43;2.87;;;1.90;99.90;;;;;;4969937;28;20494;-57
2021/03/15 03:29:07;;;;;;;3.50;2.87;;;1.90;99.90;;;;;;4966662;28;20534;-59
2021/03/15 03:31:36;;;;;;;2.83;2.53;;;1.90;99.90;;;;;;4957891;28;20461;-61
2021/03/15 03:34:03;;;;;;;6.90;2.90;;;1.90;99.90;;;;;;4963278;28;20464;-59
2021/03/15 03:36:29;;;;;;;3.10;2.67;;;1.90;99.90;;;;;;4963003;28;20440;-59
2021/03/15 03:38:55;;;;;;;2.80;2.60;;;1.90;99.90;;;;;;4957554;28;20444;-60
2021/03/15 03:41:21;;;;;;;7.63;3.63;;;1.90;99.90;;;;;;4970189;28;20559;-60
2021/03/15 03:43:47;;;;;;;3.03;2.73;;;1.90;99.90;;;;;;4962862;28;20530;-60
2021/03/15 03:46:14;;;;;;;5.50;2.80;;;1.80;99.90;;;;;;4958365;28;20467;-59
2021/03/15 03:48:41;;;;;;;3.80;3.00;;;1.80;99.90;;;;;;4965074;28;20290;-59
2021/03/15 03:51:08;;;;;;;4.83;2.70;;;1.80;99.90;;;;;;4964730;28;21141;-59
2021/03/15 03:53:45;;;;;;;4.67;2.73;;;1.80;99.90;;;;;;4959050;28;20441;-59
2021/03/15 03:56:14;;;;;;;3.33;2.70;;;1.80;99.90;;;;;;4957551;28;21134;-59
2021/03/15 03:58:48;;;;;;;4.20;2.83;;;1.80;99.90;;;;;;4963187;28;20485;-59
2021/03/15 04:01:15;;;;;;;5.10;3.27;;;1.80;99.90;;;;;;4957887;28;20469;-60
2021/03/15 04:03:49;;;;;;;3.20;2.90;;;1.70;99.90;;;;;;4958841;28;20446;-59
2021/03/15 04:06:16;;;;;;;5.27;3.30;;;1.70;99.90;;;;;;4965130;28;20466;-59
2021/03/15 04:08:46;;;;;;;3.60;2.70;;;1.70;99.90;;;;;;4968407;28;21180;-57
2021/03/15 04:11:12;;;;;;;4.93;3.17;;;1.70;99.90;;;;;;4961606;28;20466;-61
2021/03/15 04:13:39;;;;;;;7.50;4.23;;;1.80;99.90;;;;;;4963244;28;20451;-59
2021/03/15 04:16:08;;;;;;;7.50;3.63;;;1.80;99.90;;;;;;4946462;28;20442;-58
2021/03/15 04:18:37;;;;;;;3.20;2.90;;;1.80;99.90;;;;;;4969397;28;20466;-60
2021/03/15 04:21:04;;;;;;;5.27;4.00;;;1.80;99.90;;;;;;4953605;28;20877;-60
2021/03/15 04:23:33;;;;;;;6.57;3.97;;;1.80;99.90;;;;;;4966763;28;20468;-60
2021/03/15 04:26:00;;;;;;;11.47;3.67;;;1.80;99.90;;;;;;4954711;28;20459;-61
2021/03/15 04:28:30;;;;;;;3.43;3.13;;;1.80;99.90;;;;;;4945743;28;20452;-58
2021/03/15 04:30:56;;;;;;;3.30;3.00;;;1.80;99.90;;;;;;4946500;28;20635;-58
2021/03/15 04:33:23;;;;;;;6.40;3.53;;;1.80;99.90;;;;;;4967992;28;20469;-59
2021/03/15 04:35:50;;;;;;;5.77;3.37;;;1.80;99.90;;;;;;4969098;28;20518;-59
2021/03/15 04:38:16;;;;;;;11.03;3.17;;;1.80;99.90;;;;;;4972515;28;20534;-59
2021/03/15 04:40:46;;;;;;;3.63;3.03;;;1.80;99.90;;;;;;4969082;28;20435;-62
2021/03/15 04:43:12;;;;;;;4.20;3.37;;;1.80;99.90;;;;;;4958647;28;20428;-58
2021/03/15 04:45:45;;;;;;;5.30;2.90;;;1.80;99.90;;;;;;4952706;28;20459;-59
2021/03/15 04:48:26;;;;;;;6.80;4.23;;;1.80;99.90;;;;;;4968834;28;20440;-60
2021/03/15 04:51:03;;;;;;;7.30;3.50;;;1.90;99.90;;;;;;4954283;28;20431;-59
2021/03/15 04:53:31;;;;;;;3.43;3.10;;;1.90;99.90;;;;;;4965729;28;20514;-58
2021/03/15 04:56:00;;;;;;;3.77;3.47;;;1.90;99.90;;;;;;4967574;28;20850;-57
2021/03/15 04:58:27;;;;;;;4.50;3.60;;;1.90;99.90;;;;;;4962751;28;20437;-58
2021/03/15 05:00:57;;;;;;;3.90;3.40;;;1.90;99.90;;;;;;4964193;28;20440;-59
2021/03/15 05:03:24;;;;;;;4.50;3.33;;;1.90;99.90;;;;;;4965324;28;20475;-59
2021/03/15 05:05:52;;;;;;;3.63;3.30;;;1.90;99.90;;;;;;4966584;28;20498;-58
2021/03/15 05:08:22;;;;;;;4.73;3.93;;;1.90;99.90;;;;;;4961772;28;20435;-59
2021/03/15 05:10:49;;;;;;;3.10;2.80;;;1.90;99.90;;;;;;4964089;28;20431;-59
2021/03/15 05:13:16;;;;;;;5.87;3.60;;;1.90;99.90;;;;;;4945402;28;20435;-59
2021/03/15 05:15:42;;;;;;;5.97;3.37;;;1.90;99.90;;;;;;4966894;28;20830;-59
2021/03/15 05:18:12;;;;;;;3.70;3.40;;;1.90;99.90;;;;;;4956427;28;20492;-61
2021/03/15 05:20:38;;;;;;;3.97;3.20;;;1.90;99.90;;;;;;4965562;28;20530;-58
2021/03/15 05:23:07;;;;;;;5.17;3.30;;;1.90;99.90;;;;;;4954329;28;20441;-58
2021/03/15 05:25:34;;;;;;;5.37;3.30;;;1.90;99.90;;;;;;4966970;28;20837;-59
2021/03/15 05:28:01;;;;;;;7.67;3.90;;;1.90;99.90;;;;;;4956864;28;20436;-59
2021/03/15 05:30:29;;;;;;;4.80;3.10;;;1.90;99.90;;;;;;4968830;28;20436;-60
2021/03/15 05:32:56;;;;;;;5.63;3.70;;;1.90;99.90;;;;;;4963454;28;20489;-58
2021/03/15 05:35:24;;;;;;;3.50;3.20;;;1.90;99.90;;;;;;4965252;28;20493;-57
2021/03/15 05:37:50;;;;;;;3.13;2.87;;;1.90;99.90;;;;;;4956911;28;20508;-60
2021/03/15 05:40:19;;;;;;;2.70;2.50;;;1.90;99.90;;;;;;4943232;28;20858;-60
2021/03/15 05:42:51;;;;;;;5.07;3.20;;;1.80;99.90;;;;;;4934516;28;20463;-56
2021/03/15 05:45:35;;;;;;;3.27;2.97;;;1.90;99.90;;;;;;4958165;28;21173;-60
2021/03/15 05:48:10;;;;;;;3.80;3.10;;;1.90;99.90;;;;;;4957962;28;20434;-61
2021/03/15 05:51:14;;;;;;;7.10;3.50;;;1.90;99.90;;;;;;4958937;28;20426;-64
2021/03/15 05:54:14;;;;;;;2.83;2.63;;;1.90;99.90;;;;;;4961018;28;20428;-59
2021/03/15 05:56:58;;;;;;;2.93;2.63;;;1.90;99.90;;;;;;4960851;28;20440;-62
2021/03/15 05:59:42;;;;;;;3.20;2.80;;;1.90;99.90;;;;;;4957075;28;20544;-59
2021/03/15 06:02:26;;;;;;;2.40;2.30;;;1.90;99.90;;;;;;4961520;28;22391;-59
2021/03/15 06:05:26;;;;;;;3.10;2.80;;;1.90;99.90;;;;;;4962813;28;20431;-60
2021/03/15 06:08:04;;;;;;;4.17;2.67;;;1.90;99.90;;;;;;4958536;28;20433;-62
2021/03/15 06:10:36;;;;;;;3.50;2.90;;;2.00;99.90;;;;;;4945051;28;20467;-59
2021/03/15 06:13:20;;;;;;;2.97;2.77;;;2.00;99.90;;;;;;4981349;28;20432;-61
2021/03/15 06:15:48;;;;;;;3.53;3.10;;;2.00;99.90;;;;;;4991226;28;20458;-60
2021/03/15 06:18:15;;;;;;;3.33;2.83;;;2.00;99.90;;;;;;4987784;28;20516;-63
2021/03/15 06:20:43;;;;;;;2.83;2.63;;;2.00;99.90;;;;;;4974194;28;20474;-62
2021/03/15 06:23:10;;;;;;;4.70;2.77;;;2.00;99.90;;;;;;4993428;28;20423;-59
2021/03/15 06:25:36;;;;;;;5.13;3.27;;;2.10;99.90;;;;;;4979534;28;20455;-62
2021/03/15 06:28:03;;;;;;;5.03;3.00;;;2.10;99.90;;;;;;4960920;28;20432;-59
2021/03/15 06:30:30;;;;;;;2.13;2.03;;;2.00;99.90;;;;;;4966972;28;20506;-59
2021/03/15 06:33:00;;;;;;;3.13;2.13;;;2.10;99.90;;;;;;4965553;28;20482;-59
2021/03/15 06:35:37;;;;;;;3.20;2.70;;;2.00;99.90;;;;;;4964429;28;20578;-59
2021/03/15 06:38:05;;;;;;;1.90;1.80;;;2.00;99.90;;;;;;4963689;28;20465;-61
2021/03/15 06:40:33;;;;;;;2.60;2.40;;;2.00;99.90;;;;;;4963267;28;20542;-59
2021/03/15 06:43:00;;;;;;;2.10;1.90;;;2.00;99.90;;;;;;4966455;28;20478;-59
2021/03/15 06:45:26;;;;;;;1.97;1.80;;;2.00;99.90;;;;;;4965218;28;20489;-58
2021/03/15 06:47:52;;;;;;;1.87;1.67;;;2.00;99.90;;;;;;4950926;28;20475;-60
2021/03/15 06:50:19;;;;;;;1.93;1.83;;;2.00;99.90;;;;;;4945867;28;20246;-59
2021/03/15 06:53:00;;;;;;;2.13;1.97;;;2.00;99.90;;;;;;4943180;28;20486;-59
2021/03/15 06:55:35;;;;;;;2.00;1.63;;;2.00;99.90;;;;;;4961614;28;20811;-59
2021/03/15 06:58:19;;;;;;;1.90;1.80;;;2.00;99.90;;;;;;4946423;28;20526;-58
2021/03/15 07:00:45;;;;;;;1.60;1.50;;;2.00;99.90;;;;;;4964799;28;20445;-58
2021/03/15 07:03:21;;;;;;;2.00;1.90;;;2.10;99.90;;;;;;4962886;28;20865;-58
2021/03/15 07:05:57;;;;;;;1.83;1.70;;;2.00;99.90;;;;;;4964687;28;20474;-60
2021/03/15 07:08:25;;;;;;;1.60;1.50;;;2.00;99.90;;;;;;4949799;28;20982;-59
2021/03/15 07:10:56;;;;;;;1.83;1.73;;;2.10;99.90;;;;;;5011490;22;20508;-59
2021/03/15 07:13:27;;;;;;;1.83;1.73;;;2.10;99.90;;;;;;4989684;28;20978;-57
2021/03/15 07:15:55;;;;;;;2.37;2.10;;;2.10;99.90;;;;;;4998236;28;20450;-58
2021/03/15 07:18:31;;;;;;;4.07;2.00;;;2.20;99.90;;;;;;4988087;28;20993;-58
2021/03/15 07:21:06;;;;;;;2.60;2.10;;;2.20;99.90;;;;;;4970232;28;20593;-58
2021/03/15 07:23:45;;;;;;;2.17;1.97;;;2.30;99.90;;;;;;4965631;28;20516;-57
2021/03/15 07:26:16;;;;;;;2.07;1.83;;;2.30;99.90;;;;;;4967518;28;20463;-58
2021/03/15 07:28:43;;;;;;;1.57;1.47;;;2.40;99.90;;;;;;4968910;28;21113;-58
2021/03/15 07:31:24;;;;;;;6.00;3.27;;;2.40;99.90;;;;;;4948292;28;20457;-58
2021/03/15 07:33:55;;;;;;;2.07;1.87;;;2.40;99.90;;;;;;4974653;28;20444;-58
2021/03/15 07:36:31;;;;;;;2.80;1.83;;;2.40;99.90;;;;;;4972772;28;20438;-57
2021/03/15 07:39:00;;;;;;;1.60;1.50;;;2.40;99.90;;;;;;4974399;28;20432;-56
2021/03/15 07:41:26;;;;;;;1.70;1.60;;;2.50;99.90;;;;;;4966738;28;20463;-59
2021/03/15 07:43:52;;;;;;;2.27;2.07;;;2.50;99.90;;;;;;4969286;28;20461;-55
2021/03/15 07:46:29;;;;;;;1.60;1.50;;;2.50;99.90;;;;;;4969909;28;20233;-58
2021/03/15 07:48:59;;;;;;;1.47;1.37;;;2.60;99.90;;;;;;4965034;28;20433;-61
2021/03/15 07:51:30;;;;;;;1.33;1.30;;;2.60;99.90;;;;;;4964592;28;20459;-59
2021/03/15 07:54:10;;;;;;;1.30;1.20;;;2.60;99.90;;;;;;4969673;28;20431;-59
2021/03/15 07:56:36;;;;;;;2.37;1.47;;;2.60;99.90;;;;;;4949352;28;20497;-58
2021/03/15 07:59:02;;;;;;;1.00;1.00;;;2.70;99.90;;;;;;4958888;28;20540;-58
2021/03/15 08:01:28;;;;;;;3.07;1.20;;;2.70;99.90;;;;;;4957789;28;20977;-59
2021/03/15 08:03:55;;;;;;;1.00;1.00;;;2.80;99.90;;;;;;4966238;28;20534;-57
2021/03/15 08:06:21;;;;;;;1.37;1.23;;;2.80;99.90;;;;;;4964603;28;20491;-58
2021/03/15 08:08:49;;;;;;;1.40;1.30;;;2.90;99.90;;;;;;4969989;28;20440;-58
2021/03/15 08:11:16;;;;;;;1.33;1.30;;;2.90;99.90;;;;;;4965524;28;20460;-60
2021/03/15 08:13:53;;;;;;;1.83;1.37;;;3.00;99.90;;;;;;4968875;28;20439;-58
2021/03/15 08:16:20;;;;;;;1.30;1.20;;;3.00;99.90;;;;;;4966019;28;20464;-57
2021/03/15 08:18:51;;;;;;;1.17;1.17;;;3.10;99.90;;;;;;4967429;28;20461;-59
2021/03/15 08:21:26;;;;;;;1.73;1.40;;;3.10;99.90;;;;;;4964671;28;20551;-58
2021/03/15 08:23:54;;;;;;;2.53;1.37;;;3.10;99.90;;;;;;4971710;28;20963;-59
2021/03/15 08:26:21;;;;;;;1.23;1.23;;;3.10;99.90;;;;;;4975308;28;20453;-55
2021/03/15 08:28:50;;;;;;;2.90;1.20;;;3.10;99.90;;;;;;4973929;28;20458;-57
2021/03/15 08:31:40;;;;;;;3.00;1.97;;;3.10;99.90;;;;;;4954907;28;20460;-57
2021/03/15 08:34:09;;;;;;;2.00;1.73;;;3.10;99.90;;;;;;4955035;28;20429;-57
2021/03/15 08:36:43;;;;;;;1.40;1.30;;;3.10;99.90;;;;;;4950923;28;20437;-57
2021/03/15 08:39:27;;;;;;;1.23;1.20;;;3.00;99.90;;;;;;4954649;28;20438;-57
2021/03/15 08:42:20;;;;;;;1.60;1.50;;;2.90;99.90;;;;;;4967644;28;20774;-56
2021/03/15 08:44:48;;;;;;;1.50;1.40;;;2.90;99.90;;;;;;4966992;28;20427;-57
2021/03/15 08:47:43;;;;;;;1.40;1.30;;;2.80;99.90;;;;;;4971233;28;20838;-58
2021/03/15 08:50:34;;;;;;;2.07;1.77;;;2.80;99.90;;;;;;4966312;28;20447;-56
2021/03/15 08:53:01;;;;;;;3.03;1.80;;;2.90;99.90;;;;;;4965072;28;20522;-58
2021/03/15 08:55:42;;;;;;;1.90;1.60;;;2.90;99.90;;;;;;4962184;28;20453;-57
2021/03/15 08:58:39;;;;;;;1.70;1.40;;;2.90;99.90;;;;;;4960579;28;20431;-56
2021/03/15 09:01:07;;;;;;;1.47;1.37;;;2.90;99.90;;;;;;4960712;28;20970;-57
2021/03/15 09:03:49;;;;;;;1.50;1.40;;;2.90;99.90;;;;;;4953753;28;20438;-57
2021/03/15 09:06:41;;;;;;;1.50;1.40;;;2.90;99.90;;;;;;4956332;28;20978;-58
2021/03/15 09:09:20;;;;;;;2.80;1.50;;;2.90;99.90;;;;;;4956588;28;20437;-57
2021/03/15 09:11:48;;;;;;;1.30;1.20;;;2.90;99.90;;;;;;4969041;28;20472;-57
2021/03/15 09:14:17;;;;;;;1.50;1.40;;;2.90;99.90;;;;;;4968261;28;20967;-56
2021/03/15 09:16:44;;;;;;;2.60;1.50;;;2.90;99.90;;;;;;4976296;28;20552;-59
2021/03/15 09:19:26;;;;;;;3.03;1.93;;;2.90;99.90;;;;;;4977855;28;20439;-57
2021/03/15 09:22:03;;;;;;;1.83;1.73;;;2.90;99.90;;;;;;4956747;28;20460;-56
2021/03/15 09:24:42;;;;;;;2.93;1.40;;;2.90;99.90;;;;;;4969681;28;20443;-56
2021/03/15 09:27:10;;;;;;;1.60;1.50;;;2.90;99.90;;;;;;4971665;28;20513;-56
2021/03/15 09:29:37;;;;;;;2.60;1.90;;;2.90;99.90;;;;;;4963517;28;20433;-57
2021/03/15 09:32:03;;;;;;;1.50;1.40;;;2.90;99.90;;;;;;4977036;28;20477;-59
2021/03/15 09:34:29;;;;;;;1.13;1.10;;;2.90;99.90;;;;;;4979236;28;20441;-60
2021/03/15 09:36:59;;;;;;;1.10;1.10;;;3.00;99.90;;;;;;4980354;28;20440;-59
2021/03/15 09:39:28;;;;;;;2.70;1.40;;;3.00;99.90;;;;;;4982727;28;20192;-58
2021/03/15 09:41:55;;;;;;;1.27;1.17;;;3.00;99.90;;;;;;4964002;28;20450;-58
2021/03/15 09:44:26;;;;;;;1.50;1.40;;;3.00;99.90;;;;;;4987585;28;20909;-58
2021/03/15 09:46:53;;;;;;;1.60;1.40;;;3.00;99.90;;;;;;4974711;28;20565;-56
2021/03/15 09:49:39;;;;;;;1.33;1.23;;;3.00;99.90;;;;;;4965579;28;21075;-57
2021/03/15 09:52:23;;;;;;;2.10;1.47;;;3.10;99.90;;;;;;4968030;28;20440;-58
2021/03/15 09:54:56;;;;;;;1.37;1.27;;;3.20;99.90;;;;;;4966301;28;20462;-59
2021/03/15 09:57:23;;;;;;;2.10;1.43;;;3.30;99.90;;;;;;4965270;28;20443;-57
2021/03/15 09:59:50;;;;;;;2.00;1.43;;;3.30;99.90;;;;;;4948165;28;20463;-58
2021/03/15 10:02:36;;;;;;;3.03;2.40;;;3.40;99.90;;;;;;4966093;28;20812;-56
2021/03/15 10:05:01;;;;;;;3.80;3.10;;;3.40;99.90;;;;;;4959027;28;20439;-58
2021/03/15 10:07:27;;;;;;;1.27;1.27;;;3.40;99.90;;;;;;4953994;28;20432;-59
2021/03/15 10:09:53;;;;;;;1.50;1.40;;;3.40;99.90;;;;;;4953475;28;20793;-57
2021/03/15 10:12:20;;;;;;;1.60;1.50;;;3.40;99.90;;;;;;4954796;28;20192;-57
2021/03/15 10:14:46;;;;;;;1.33;1.23;;;3.40;99.90;;;;;;4974854;28;20555;-58
2021/03/15 10:17:20;;;;;;;1.43;1.33;;;3.50;99.90;;;;;;4964526;28;20432;-58
2021/03/15 10:19:46;;;;;;;1.53;1.47;;;3.50;99.90;;;;;;4954087;28;20439;-56
2021/03/15 10:22:14;;;;;;;2.20;1.70;;;3.50;99.90;;;;;;4952418;28;20449;-59
2021/03/15 10:24:41;;;;;;;1.60;1.50;;;3.60;99.90;;;;;;4951560;28;20193;-56
2021/03/15 10:27:15;;;;;;;3.90;1.70;;;3.60;99.90;;;;;;4972853;28;20988;-57
2021/03/15 10:29:41;;;;;;;2.23;1.80;;;3.60;99.90;;;;;;4970843;28;20444;-57
2021/03/15 10:32:07;;;;;;;1.60;1.50;;;3.60;99.90;;;;;;4964834;28;20465;-57
2021/03/15 10:34:34;;;;;;;1.50;1.40;;;3.60;99.90;;;;;;4951191;28;20834;-56
2021/03/15 10:37:00;;;;;;;1.50;1.40;;;3.60;99.90;;;;;;4969191;28;20487;-59
2021/03/15 10:39:27;;;;;;;1.60;1.50;;;3.60;99.90;;;;;;4969458;28;20445;-60
2021/03/15 10:41:53;;;;;;;4.40;1.33;;;3.60;99.90;;;;;;4970040;28;21039;-60
2021/03/15 10:44:21;;;;;;;1.60;1.50;;;3.60;99.90;;;;;;4977801;28;20450;-57
2021/03/15 10:46:53;;;;;;;1.50;1.40;;;3.60;99.90;;;;;;4987754;28;20472;-56
2021/03/15 10:49:27;;;;;;;2.00;1.80;;;3.60;99.90;;;;;;4969607;28;20938;-58
2021/03/15 10:51:54;;;;;;;2.83;1.67;;;3.70;99.90;;;;;;4968969;28;20530;-56
2021/03/15 10:54:34;;;;;;;2.60;2.00;;;3.70;99.90;;;;;;4971636;28;20482;-56
2021/03/15 10:57:09;;;;;;;1.50;1.40;;;3.80;99.90;;;;;;4947918;28;20437;-56
2021/03/15 10:59:35;;;;;;;1.50;1.50;;;3.90;99.90;;;;;;4967560;28;20501;-59
2021/03/15 11:02:01;;;;;;;1.83;1.73;;;3.80;99.90;;;;;;4967000;28;20949;-58
2021/03/15 11:04:34;;;;;;;1.83;1.73;;;3.80;99.90;;;;;;4952029;28;20433;-61
2021/03/15 11:07:15;;;;;;;1.87;1.63;;;3.90;99.90;;;;;;4959568;28;20208;-59
2021/03/15 11:09:41;;;;;;;2.10;1.90;;;3.90;99.90;;;;;;4977220;28;20457;-58
2021/03/15 11:12:07;;;;;;;1.80;1.70;;;3.90;99.90;;;;;;4967948;28;20460;-61
2021/03/15 11:14:32;;;;;;;2.60;1.90;;;4.00;99.90;;;;;;4955043;28;20195;-60
2021/03/15 11:17:01;;;;;;;1.60;1.50;;;4.00;99.90;;;;;;4964851;28;20982;-56
2021/03/15 11:19:27;;;;;;;5.23;3.20;;;4.00;99.90;;;;;;4951493;28;20248;-58
2021/03/15 11:21:53;;;;;;;4.50;1.80;;;4.10;99.90;;;;;;4952154;28;20461;-57
2021/03/15 11:24:28;;;;;;;2.33;2.13;;;4.10;99.90;;;;;;4964799;28;20190;-55
2021/03/15 11:26:56;;;;;;;2.30;1.47;;;4.10;99.90;;;;;;4946453;28;20456;-55
2021/03/15 11:29:39;;;;;;;1.27;1.20;;;4.10;99.90;;;;;;4965904;28;20441;-55
2021/03/15 11:32:09;;;;;;;6.93;4.57;;;4.10;99.90;;;;;;4946331;28;20445;-55
2021/03/15 11:34:48;;;;;;;1.40;1.30;;;4.00;99.90;;;;;;4966842;28;20421;-54
2021/03/15 11:37:15;;;;;;;1.47;1.20;;;4.10;99.90;;;;;;4967279;28;20432;-57
2021/03/15 11:39:45;;;;;;;1.47;1.37;;;4.10;99.90;;;;;;4968117;28;20821;-58
2021/03/15 11:42:31;;;;;;;2.60;1.70;;;4.20;99.90;;;;;;4968850;28;20471;-58
2021/03/15 11:44:58;;;;;;;1.43;1.20;;;4.40;99.90;;;;;;4969313;28;20445;-58
2021/03/15 11:47:24;;;;;;;1.50;1.40;;;4.40;99.90;;;;;;4972193;28;20454;-59
2021/03/15 11:49:49;;;;;;;1.20;1.10;;;4.50;99.90;;;;;;4968056;28;20433;-59
2021/03/15 11:52:27;;;;;;;1.30;1.20;;;4.70;99.90;;;;;;4949653;28;20475;-59
2021/03/15 11:54:53;;;;;;;1.83;1.67;;;4.80;99.90;;;;;;4943933;28;20247;-59
2021/03/15 11:57:20;;;;;;;1.70;1.60;;;5.00;99.90;;;;;;4966632;28;20532;-57
2021/03/15 11:59:46;;;;;;;1.27;1.17;;;5.10;99.90;;;;;;4968032;28;21089;-58
2021/03/15 12:02:12;;;;;;;6.03;1.37;;;5.00;99.90;;;;;;4974146;28;20477;-58
2021/03/15 12:04:38;;;;;;;1.40;1.20;;;5.10;99.90;;;;;;4977700;28;20198;-57
2021/03/15 12:07:05;;;;;;;1.10;1.10;;;5.00;99.90;;;;;;4966374;28;20846;-57
2021/03/15 12:09:30;;;;;;;2.20;1.30;;;5.00;99.90;;;;;;4967146;28;20502;-57
2021/03/15 12:11:56;;;;;;;1.40;1.30;;;5.10;99.90;;;;;;4972631;28;20978;-57
2021/03/15 12:14:22;;;;;;;1.00;1.00;;;5.00;99.90;;;;;;4974074;28;20222;-60
2021/03/15 12:16:48;;;;;;;1.07;0.97;;;5.10;99.90;;;;;;4979596;28;20476;-58
2021/03/15 12:19:15;;;;;;;1.40;1.30;;;5.10;99.90;;;;;;4937641;28;20198;-57
2021/03/15 12:21:41;;;;;;;1.27;1.20;;;5.40;99.90;;;;;;4973879;28;20453;-59
2021/03/15 12:24:07;;;;;;;1.37;1.27;;;5.80;99.90;;;;;;4956930;28;20441;-58
2021/03/15 12:26:34;;;;;;;1.80;1.70;;;6.30;99.90;;;;;;4971682;28;20475;-57
2021/03/15 12:29:00;;;;;;;2.03;1.80;;;6.70;98.50;;;;;;4965211;28;20914;-59
2021/03/15 12:31:26;;;;;;;2.13;1.93;;;6.90;97.80;;;;;;4963374;28;20531;-59
2021/03/15 12:33:52;;;;;;;1.73;1.53;;;6.90;96.70;;;;;;4976722;28;20801;-58
2021/03/15 12:36:18;;;;;;;1.60;1.50;;;6.80;95.20;;;;;;4971119;28;20190;-57
2021/03/15 12:38:43;;;;;;;1.40;1.30;;;6.60;95.20;;;;;;4961330;28;20181;-57
2021/03/15 12:41:09;;;;;;;1.67;1.50;;;6.30;96.70;;;;;;4959855;28;20679;-57
2021/03/15 12:43:36;;;;;;;1.90;1.80;;;6.10;97.50;;;;;;4963504;28;20178;-57
2021/03/15 12:46:01;;;;;;;1.77;1.67;;;5.90;98.20;;;;;;4967405;28;20843;-58
2021/03/15 12:48:27;;;;;;;2.60;1.83;;;5.80;98.60;;;;;;4965829;28;20445;-57
2021/03/15 12:50:53;;;;;;;1.50;1.40;;;5.70;98.60;;;;;;4973088;28;20452;-58
2021/03/15 12:53:19;;;;;;;1.63;1.53;;;5.50;98.40;;;;;;4973842;28;20217;-60
2021/03/15 12:55:44;;;;;;;1.70;1.60;;;5.40;98.90;;;;;;4954270;28;20232;-58
2021/03/15 12:58:10;;;;;;;1.67;1.57;;;5.20;99.20;;;;;;4972201;28;20724;-58
2021/03/15 13:00:36;;;;;;;1.60;1.50;;;5.10;99.80;;;;;;4971922;28;20216;-58
2021/03/15 13:03:01;;;;;;;1.80;1.70;;;4.90;99.90;;;;;;4972214;28;20196;-57
2021/03/15 13:05:27;;;;;;;2.60;2.00;;;4.90;99.90;;;;;;4970917;28;20210;-57
2021/03/15 13:07:53;;;;;;;2.40;2.20;;;4.80;99.90;;;;;;4949591;28;20187;-56
2021/03/15 13:10:18;;;;;;;2.20;2.00;;;4.70;99.90;;;;;;4972313;28;20217;-55
2021/03/15 13:12:44;;;;;;;3.20;2.33;;;4.70;99.90;;;;;;4967041;28;20260;-56